sensor_id;sensor_type;location;lat;lon;timestamp;P1;durP1;ratioP1;P2;durP2;ratioP2
11839;SDS011;5979;50.800;4.904;2022-11-15T00:01:35;16.42;;;12.10;;
11839;SDS011;5979;50.800;4.904;2022-11-15T00:04:04;12.93;;;11.50;;
11839;SDS011;5979;50.800;4.904;2022-11-15T00:06:30;13.77;;;11.82;;
11839;SDS011;5979;50.800;4.904;2022-11-15T00:08:59;12.80;;;11.20;;
11839;SDS011;5979;50.800;4.904;2022-11-15T00:11:25;13.90;;;11.98;;
11839;SDS011;5979;50.800;4.904;2022-11-15T00:13:54;15.90;;;11.73;;
11839;SDS011;5979;50.800;4.904;2022-11-15T00:16:21;15.13;;;12.10;;
11839;SDS011;5979;50.800;4.904;2022-11-15T00:18:47;15.82;;;11.70;;
11839;SDS011;5979;50.800;4.904;2022-11-15T00:21:13;15.07;;;12.20;;
11839;SDS011;5979;50.800;4.904;2022-11-15T00:23:39;15.05;;;12.25;;
11839;SDS011;5979;50.800;4.904;2022-11-15T00:26:05;17.63;;;13.23;;
11839;SDS011;5979;50.800;4.904;2022-11-15T00:28:31;15.80;;;11.93;;
11839;SDS011;5979;50.800;4.904;2022-11-15T00:31:01;14.40;;;12.43;;
11839;SDS011;5979;50.800;4.904;2022-11-15T00:33:27;13.15;;;11.00;;
11839;SDS011;5979;50.800;4.904;2022-11-15T00:35:53;15.77;;;12.30;;
11839;SDS011;5979;50.800;4.904;2022-11-15T00:38:18;14.48;;;12.73;;
11839;SDS011;5979;50.800;4.904;2022-11-15T00:40:44;13.65;;;12.25;;
11839;SDS011;5979;50.800;4.904;2022-11-15T00:43:10;13.75;;;12.40;;
11839;SDS011;5979;50.800;4.904;2022-11-15T00:45:35;14.50;;;12.48;;
11839;SDS011;5979;50.800;4.904;2022-11-15T00:48:01;12.77;;;11.48;;
11839;SDS011;5979;50.800;4.904;2022-11-15T00:50:26;16.90;;;11.77;;
11839;SDS011;5979;50.800;4.904;2022-11-15T00:52:52;13.50;;;11.27;;
11839;SDS011;5979;50.800;4.904;2022-11-15T00:55:18;14.02;;;12.02;;
11839;SDS011;5979;50.800;4.904;2022-11-15T00:57:45;12.95;;;11.40;;
11839;SDS011;5979;50.800;4.904;2022-11-15T01:00:11;11.52;;;10.30;;
11839;SDS011;5979;50.800;4.904;2022-11-15T01:02:37;13.27;;;11.55;;
11839;SDS011;5979;50.800;4.904;2022-11-15T01:05:03;13.93;;;11.57;;
11839;SDS011;5979;50.800;4.904;2022-11-15T01:07:29;14.68;;;11.70;;
11839;SDS011;5979;50.800;4.904;2022-11-15T01:09:55;12.05;;;10.65;;
11839;SDS011;5979;50.800;4.904;2022-11-15T01:12:21;15.20;;;12.20;;
11839;SDS011;5979;50.800;4.904;2022-11-15T01:14:46;14.00;;;11.35;;
11839;SDS011;5979;50.800;4.904;2022-11-15T01:17:12;17.35;;;12.68;;
11839;SDS011;5979;50.800;4.904;2022-11-15T01:19:37;14.70;;;12.10;;
11839;SDS011;5979;50.800;4.904;2022-11-15T01:22:03;14.80;;;11.82;;
11839;SDS011;5979;50.800;4.904;2022-11-15T01:24:29;13.75;;;12.13;;
11839;SDS011;5979;50.800;4.904;2022-11-15T01:26:54;15.60;;;12.88;;
11839;SDS011;5979;50.800;4.904;2022-11-15T01:29:20;15.40;;;12.50;;
11839;SDS011;5979;50.800;4.904;2022-11-15T01:31:46;16.45;;;13.60;;
11839;SDS011;5979;50.800;4.904;2022-11-15T01:34:11;15.85;;;12.88;;
11839;SDS011;5979;50.800;4.904;2022-11-15T01:36:37;15.45;;;13.60;;
11839;SDS011;5979;50.800;4.904;2022-11-15T01:39:03;16.23;;;13.35;;
11839;SDS011;5979;50.800;4.904;2022-11-15T01:41:30;16.70;;;13.35;;
11839;SDS011;5979;50.800;4.904;2022-11-15T01:44:28;16.50;;;12.45;;
11839;SDS011;5979;50.800;4.904;2022-11-15T01:47:02;13.57;;;12.13;;
11839;SDS011;5979;50.800;4.904;2022-11-15T01:49:32;15.43;;;12.43;;
11839;SDS011;5979;50.800;4.904;2022-11-15T01:52:00;14.25;;;12.30;;
11839;SDS011;5979;50.800;4.904;2022-11-15T01:54:28;16.10;;;13.27;;
11839;SDS011;5979;50.800;4.904;2022-11-15T01:56:59;17.35;;;12.73;;
11839;SDS011;5979;50.800;4.904;2022-11-15T01:59:28;15.25;;;13.65;;
11839;SDS011;5979;50.800;4.904;2022-11-15T02:01:55;14.45;;;12.70;;
11839;SDS011;5979;50.800;4.904;2022-11-15T02:04:24;17.50;;;13.32;;
11839;SDS011;5979;50.800;4.904;2022-11-15T02:06:53;18.65;;;14.30;;
11839;SDS011;5979;50.800;4.904;2022-11-15T02:09:19;15.40;;;13.63;;
11839;SDS011;5979;50.800;4.904;2022-11-15T02:11:44;16.85;;;12.93;;
11839;SDS011;5979;50.800;4.904;2022-11-15T02:14:12;18.90;;;13.57;;
11839;SDS011;5979;50.800;4.904;2022-11-15T02:41:01;14.18;;;11.95;;
11839;SDS011;5979;50.800;4.904;2022-11-15T02:43:46;12.60;;;10.82;;
11839;SDS011;5979;50.800;4.904;2022-11-15T02:46:31;14.45;;;12.80;;
11839;SDS011;5979;50.800;4.904;2022-11-15T02:49:22;16.77;;;12.35;;
11839;SDS011;5979;50.800;4.904;2022-11-15T02:51:52;15.18;;;12.90;;
11839;SDS011;5979;50.800;4.904;2022-11-15T02:54:23;15.93;;;13.65;;
11839;SDS011;5979;50.800;4.904;2022-11-15T02:56:52;17.58;;;14.25;;
11839;SDS011;5979;50.800;4.904;2022-11-15T02:59:57;16.50;;;13.13;;
11839;SDS011;5979;50.800;4.904;2022-11-15T03:09:52;19.13;;;13.75;;
11839;SDS011;5979;50.800;4.904;2022-11-15T03:12:26;14.57;;;11.73;;
11839;SDS011;5979;50.800;4.904;2022-11-15T03:15:33;13.00;;;11.52;;
11839;SDS011;5979;50.800;4.904;2022-11-15T03:18:16;14.43;;;11.43;;
11839;SDS011;5979;50.800;4.904;2022-11-15T03:20:46;14.45;;;12.23;;
11839;SDS011;5979;50.800;4.904;2022-11-15T03:23:13;13.15;;;10.60;;
11839;SDS011;5979;50.800;4.904;2022-11-15T03:25:47;10.93;;;9.38;;
11839;SDS011;5979;50.800;4.904;2022-11-15T03:28:25;11.98;;;10.55;;
11839;SDS011;5979;50.800;4.904;2022-11-15T03:30:58;16.13;;;12.93;;
11839;SDS011;5979;50.800;4.904;2022-11-15T03:33:46;15.07;;;11.40;;
11839;SDS011;5979;50.800;4.904;2022-11-15T03:36:14;12.13;;;10.90;;
11839;SDS011;5979;50.800;4.904;2022-11-15T03:38:40;15.52;;;10.95;;
11839;SDS011;5979;50.800;4.904;2022-11-15T03:41:09;17.05;;;12.93;;
11839;SDS011;5979;50.800;4.904;2022-11-15T03:47:06;17.35;;;12.32;;
11839;SDS011;5979;50.800;4.904;2022-11-15T03:49:36;13.32;;;11.32;;
11839;SDS011;5979;50.800;4.904;2022-11-15T03:52:07;16.85;;;13.70;;
11839;SDS011;5979;50.800;4.904;2022-11-15T03:54:35;18.15;;;15.02;;
11839;SDS011;5979;50.800;4.904;2022-11-15T03:57:01;18.15;;;13.65;;
11839;SDS011;5979;50.800;4.904;2022-11-15T03:59:27;14.73;;;12.35;;
11839;SDS011;5979;50.800;4.904;2022-11-15T04:01:52;19.60;;;14.27;;
11839;SDS011;5979;50.800;4.904;2022-11-15T04:04:18;13.95;;;11.35;;
11839;SDS011;5979;50.800;4.904;2022-11-15T04:06:43;10.90;;;8.85;;
11839;SDS011;5979;50.800;4.904;2022-11-15T04:09:09;9.43;;;7.95;;
11839;SDS011;5979;50.800;4.904;2022-11-15T04:11:35;6.90;;;6.30;;
11839;SDS011;5979;50.800;4.904;2022-11-15T04:14:00;7.78;;;6.05;;
11839;SDS011;5979;50.800;4.904;2022-11-15T04:16:26;6.30;;;5.20;;
11839;SDS011;5979;50.800;4.904;2022-11-15T04:18:52;6.28;;;5.07;;
11839;SDS011;5979;50.800;4.904;2022-11-15T04:21:37;5.20;;;4.78;;
11839;SDS011;5979;50.800;4.904;2022-11-15T04:24:21;5.82;;;4.93;;
11839;SDS011;5979;50.800;4.904;2022-11-15T04:26:47;5.28;;;4.88;;
11839;SDS011;5979;50.800;4.904;2022-11-15T04:29:12;6.38;;;5.78;;
11839;SDS011;5979;50.800;4.904;2022-11-15T04:31:56;5.10;;;4.60;;
11839;SDS011;5979;50.800;4.904;2022-11-15T04:34:22;5.80;;;5.30;;
11839;SDS011;5979;50.800;4.904;2022-11-15T04:36:48;5.88;;;5.25;;
11839;SDS011;5979;50.800;4.904;2022-11-15T04:39:44;5.05;;;4.40;;
11839;SDS011;5979;50.800;4.904;2022-11-15T04:42:10;6.45;;;5.63;;
11839;SDS011;5979;50.800;4.904;2022-11-15T04:44:35;5.68;;;5.18;;
11839;SDS011;5979;50.800;4.904;2022-11-15T04:47:01;5.22;;;4.80;;
11839;SDS011;5979;50.800;4.904;2022-11-15T04:49:27;5.30;;;4.80;;
11839;SDS011;5979;50.800;4.904;2022-11-15T04:51:53;6.40;;;5.03;;
11839;SDS011;5979;50.800;4.904;2022-11-15T04:54:18;5.53;;;5.05;;
11839;SDS011;5979;50.800;4.904;2022-11-15T04:56:44;7.53;;;6.05;;
11839;SDS011;5979;50.800;4.904;2022-11-15T04:59:10;6.55;;;5.32;;
11839;SDS011;5979;50.800;4.904;2022-11-15T05:01:35;7.25;;;5.55;;
11839;SDS011;5979;50.800;4.904;2022-11-15T05:04:01;8.43;;;6.90;;
11839;SDS011;5979;50.800;4.904;2022-11-15T05:06:48;9.20;;;7.13;;
11839;SDS011;5979;50.800;4.904;2022-11-15T05:09:15;10.05;;;7.90;;
11839;SDS011;5979;50.800;4.904;2022-11-15T05:11:42;8.10;;;7.40;;
11839;SDS011;5979;50.800;4.904;2022-11-15T05:14:07;10.32;;;8.02;;
11839;SDS011;5979;50.800;4.904;2022-11-15T05:16:33;10.07;;;8.40;;
11839;SDS011;5979;50.800;4.904;2022-11-15T05:18:59;9.77;;;8.88;;
11839;SDS011;5979;50.800;4.904;2022-11-15T05:21:25;9.60;;;8.07;;
11839;SDS011;5979;50.800;4.904;2022-11-15T05:23:51;10.50;;;9.40;;
11839;SDS011;5979;50.800;4.904;2022-11-15T05:26:17;10.70;;;9.60;;
11839;SDS011;5979;50.800;4.904;2022-11-15T05:28:43;13.68;;;9.27;;
11839;SDS011;5979;50.800;4.904;2022-11-15T05:31:13;10.60;;;9.50;;
11839;SDS011;5979;50.800;4.904;2022-11-15T05:33:40;11.18;;;10.10;;
11839;SDS011;5979;50.800;4.904;2022-11-15T05:36:09;12.60;;;9.70;;
11839;SDS011;5979;50.800;4.904;2022-11-15T05:38:44;12.00;;;9.88;;
11839;SDS011;5979;50.800;4.904;2022-11-15T05:41:11;10.48;;;9.40;;
11839;SDS011;5979;50.800;4.904;2022-11-15T05:43:40;10.48;;;9.27;;
11839;SDS011;5979;50.800;4.904;2022-11-15T05:46:07;11.60;;;9.68;;
11839;SDS011;5979;50.800;4.904;2022-11-15T05:48:34;10.32;;;9.25;;
11839;SDS011;5979;50.800;4.904;2022-11-15T05:51:02;10.35;;;9.32;;
11839;SDS011;5979;50.800;4.904;2022-11-15T05:53:30;11.80;;;9.18;;
11839;SDS011;5979;50.800;4.904;2022-11-15T05:55:56;11.25;;;9.88;;
11839;SDS011;5979;50.800;4.904;2022-11-15T05:58:22;11.63;;;8.80;;
11839;SDS011;5979;50.800;4.904;2022-11-15T06:00:47;11.38;;;9.40;;
11839;SDS011;5979;50.800;4.904;2022-11-15T06:03:13;9.32;;;8.43;;
11839;SDS011;5979;50.800;4.904;2022-11-15T06:05:39;9.10;;;8.20;;
11839;SDS011;5979;50.800;4.904;2022-11-15T06:08:05;9.57;;;8.32;;
11839;SDS011;5979;50.800;4.904;2022-11-15T06:10:32;8.68;;;7.88;;
11839;SDS011;5979;50.800;4.904;2022-11-15T06:12:58;7.78;;;6.97;;
11839;SDS011;5979;50.800;4.904;2022-11-15T06:15:24;7.93;;;7.22;;
11839;SDS011;5979;50.800;4.904;2022-11-15T06:17:49;9.23;;;7.45;;
11839;SDS011;5979;50.800;4.904;2022-11-15T06:20:15;8.32;;;7.47;;
11839;SDS011;5979;50.800;4.904;2022-11-15T06:22:41;7.55;;;6.85;;
11839;SDS011;5979;50.800;4.904;2022-11-15T06:25:07;8.13;;;7.35;;
11839;SDS011;5979;50.800;4.904;2022-11-15T06:27:32;8.55;;;7.75;;
11839;SDS011;5979;50.800;4.904;2022-11-15T06:29:58;7.82;;;6.95;;
11839;SDS011;5979;50.800;4.904;2022-11-15T06:32:24;8.45;;;7.07;;
11839;SDS011;5979;50.800;4.904;2022-11-15T06:34:49;7.25;;;6.55;;
11839;SDS011;5979;50.800;4.904;2022-11-15T06:37:15;6.18;;;5.57;;
11839;SDS011;5979;50.800;4.904;2022-11-15T06:39:41;8.48;;;7.45;;
11839;SDS011;5979;50.800;4.904;2022-11-15T06:42:07;7.82;;;7.05;;
11839;SDS011;5979;50.800;4.904;2022-11-15T06:44:33;10.82;;;7.70;;
11839;SDS011;5979;50.800;4.904;2022-11-15T06:46:59;7.75;;;6.95;;
11839;SDS011;5979;50.800;4.904;2022-11-15T06:49:24;8.95;;;7.53;;
11839;SDS011;5979;50.800;4.904;2022-11-15T06:51:50;10.63;;;7.40;;
11839;SDS011;5979;50.800;4.904;2022-11-15T06:54:16;8.02;;;6.78;;
11839;SDS011;5979;50.800;4.904;2022-11-15T06:56:41;9.60;;;8.68;;
11839;SDS011;5979;50.800;4.904;2022-11-15T06:59:07;10.70;;;8.73;;
11839;SDS011;5979;50.800;4.904;2022-11-15T07:01:33;10.80;;;7.40;;
11839;SDS011;5979;50.800;4.904;2022-11-15T07:03:58;7.47;;;6.68;;
11839;SDS011;5979;50.800;4.904;2022-11-15T07:06:24;11.15;;;7.10;;
11839;SDS011;5979;50.800;4.904;2022-11-15T07:08:49;7.80;;;6.18;;
11839;SDS011;5979;50.800;4.904;2022-11-15T07:11:15;6.97;;;6.30;;
11839;SDS011;5979;50.800;4.904;2022-11-15T07:13:41;6.43;;;5.82;;
11839;SDS011;5979;50.800;4.904;2022-11-15T07:16:08;5.75;;;5.35;;
11839;SDS011;5979;50.800;4.904;2022-11-15T07:18:35;5.38;;;4.97;;
11839;SDS011;5979;50.800;4.904;2022-11-15T07:21:03;5.32;;;4.82;;
11839;SDS011;5979;50.800;4.904;2022-11-15T07:23:30;5.30;;;4.90;;
11839;SDS011;5979;50.800;4.904;2022-11-15T07:25:56;5.95;;;5.40;;
11839;SDS011;5979;50.800;4.904;2022-11-15T07:28:23;5.63;;;5.20;;
11839;SDS011;5979;50.800;4.904;2022-11-15T07:30:50;6.95;;;5.75;;
11839;SDS011;5979;50.800;4.904;2022-11-15T07:33:15;5.32;;;4.82;;
11839;SDS011;5979;50.800;4.904;2022-11-15T07:35:41;6.03;;;5.40;;
11839;SDS011;5979;50.800;4.904;2022-11-15T07:38:07;5.68;;;5.18;;
11839;SDS011;5979;50.800;4.904;2022-11-15T07:40:34;5.93;;;5.43;;
11839;SDS011;5979;50.800;4.904;2022-11-15T07:43:04;8.00;;;6.80;;
11839;SDS011;5979;50.800;4.904;2022-11-15T07:45:31;5.40;;;4.80;;
11839;SDS011;5979;50.800;4.904;2022-11-15T07:47:58;7.07;;;4.68;;
11839;SDS011;5979;50.800;4.904;2022-11-15T07:50:25;5.30;;;4.90;;
11839;SDS011;5979;50.800;4.904;2022-11-15T07:52:54;4.80;;;4.40;;
11839;SDS011;5979;50.800;4.904;2022-11-15T07:55:21;4.07;;;3.78;;
11839;SDS011;5979;50.800;4.904;2022-11-15T07:57:50;4.30;;;3.90;;
11839;SDS011;5979;50.800;4.904;2022-11-15T08:00:16;4.25;;;3.95;;
11839;SDS011;5979;50.800;4.904;2022-11-15T08:02:42;4.72;;;4.22;;
11839;SDS011;5979;50.800;4.904;2022-11-15T08:05:08;4.95;;;3.65;;
11839;SDS011;5979;50.800;4.904;2022-11-15T08:07:33;4.78;;;4.03;;
11839;SDS011;5979;50.800;4.904;2022-11-15T08:09:59;3.78;;;3.30;;
11839;SDS011;5979;50.800;4.904;2022-11-15T08:12:28;3.10;;;2.85;;
11839;SDS011;5979;50.800;4.904;2022-11-15T08:14:55;4.00;;;3.70;;
11839;SDS011;5979;50.800;4.904;2022-11-15T08:17:21;3.22;;;2.92;;
11839;SDS011;5979;50.800;4.904;2022-11-15T08:19:50;4.20;;;2.92;;
11839;SDS011;5979;50.800;4.904;2022-11-15T08:22:16;3.03;;;2.80;;
11839;SDS011;5979;50.800;4.904;2022-11-15T08:24:43;3.05;;;2.70;;
11839;SDS011;5979;50.800;4.904;2022-11-15T08:27:09;2.25;;;2.05;;
11839;SDS011;5979;50.800;4.904;2022-11-15T08:29:47;3.38;;;2.40;;
11839;SDS011;5979;50.800;4.904;2022-11-15T08:32:13;2.88;;;2.60;;
11839;SDS011;5979;50.800;4.904;2022-11-15T08:34:39;4.47;;;2.35;;
11839;SDS011;5979;50.800;4.904;2022-11-15T08:37:05;3.85;;;2.53;;
11839;SDS011;5979;50.800;4.904;2022-11-15T08:39:30;2.70;;;2.03;;
11839;SDS011;5979;50.800;4.904;2022-11-15T08:41:57;2.13;;;2.03;;
11839;SDS011;5979;50.800;4.904;2022-11-15T08:44:22;2.33;;;2.08;;
11839;SDS011;5979;50.800;4.904;2022-11-15T08:46:49;3.22;;;2.30;;
11839;SDS011;5979;50.800;4.904;2022-11-15T08:49:15;1.58;;;1.48;;
11839;SDS011;5979;50.800;4.904;2022-11-15T08:51:41;3.10;;;2.00;;
11839;SDS011;5979;50.800;4.904;2022-11-15T08:54:07;3.10;;;1.85;;
11839;SDS011;5979;50.800;4.904;2022-11-15T08:56:32;3.10;;;1.98;;
11839;SDS011;5979;50.800;4.904;2022-11-15T08:58:58;2.47;;;1.77;;
11839;SDS011;5979;50.800;4.904;2022-11-15T09:01:24;2.97;;;1.92;;
11839;SDS011;5979;50.800;4.904;2022-11-15T09:03:49;2.78;;;1.67;;
11839;SDS011;5979;50.800;4.904;2022-11-15T09:06:16;4.72;;;1.60;;
11839;SDS011;5979;50.800;4.904;2022-11-15T09:08:41;3.08;;;1.95;;
11839;SDS011;5979;50.800;4.904;2022-11-15T09:11:08;3.50;;;2.05;;
11839;SDS011;5979;50.800;4.904;2022-11-15T09:13:35;5.97;;;1.92;;
11839;SDS011;5979;50.800;4.904;2022-11-15T09:16:04;3.55;;;1.42;;
11839;SDS011;5979;50.800;4.904;2022-11-15T09:18:30;3.88;;;1.73;;
11839;SDS011;5979;50.800;4.904;2022-11-15T09:20:58;2.83;;;1.63;;
11839;SDS011;5979;50.800;4.904;2022-11-15T09:23:25;2.83;;;1.60;;
11839;SDS011;5979;50.800;4.904;2022-11-15T09:25:51;4.55;;;1.50;;
11839;SDS011;5979;50.800;4.904;2022-11-15T09:28:18;2.30;;;1.65;;
11839;SDS011;5979;50.800;4.904;2022-11-15T09:30:44;5.47;;;1.88;;
11839;SDS011;5979;50.800;4.904;2022-11-15T09:33:10;3.15;;;1.30;;
11839;SDS011;5979;50.800;4.904;2022-11-15T09:35:37;1.95;;;1.35;;
11839;SDS011;5979;50.800;4.904;2022-11-15T09:38:03;3.95;;;1.80;;
11839;SDS011;5979;50.800;4.904;2022-11-15T09:40:30;1.45;;;1.35;;
11839;SDS011;5979;50.800;4.904;2022-11-15T09:51:27;5.53;;;1.67;;
11839;SDS011;5979;50.800;4.904;2022-11-15T09:56:35;2.53;;;1.60;;
11839;SDS011;5979;50.800;4.904;2022-11-15T09:59:16;2.30;;;1.55;;
11839;SDS011;5979;50.800;4.904;2022-11-15T10:04:33;1.58;;;1.45;;
11839;SDS011;5979;50.800;4.904;2022-11-15T10:07:15;3.55;;;1.80;;
11839;SDS011;5979;50.800;4.904;2022-11-15T10:09:54;4.95;;;1.52;;
11839;SDS011;5979;50.800;4.904;2022-11-15T10:12:38;2.55;;;1.48;;
11839;SDS011;5979;50.800;4.904;2022-11-15T10:15:06;2.80;;;1.65;;
11839;SDS011;5979;50.800;4.904;2022-11-15T10:20:31;2.35;;;1.40;;
11839;SDS011;5979;50.800;4.904;2022-11-15T10:23:11;2.53;;;1.42;;
11839;SDS011;5979;50.800;4.904;2022-11-15T10:25:39;2.25;;;1.60;;
11839;SDS011;5979;50.800;4.904;2022-11-15T10:28:17;3.67;;;1.70;;
11839;SDS011;5979;50.800;4.904;2022-11-15T10:30:47;1.60;;;1.40;;
11839;SDS011;5979;50.800;4.904;2022-11-15T10:33:34;2.63;;;1.55;;
11839;SDS011;5979;50.800;4.904;2022-11-15T10:41:14;4.85;;;1.85;;
11839;SDS011;5979;50.800;4.904;2022-11-15T10:43:41;4.38;;;1.70;;
11839;SDS011;5979;50.800;4.904;2022-11-15T10:46:20;3.50;;;1.40;;
11839;SDS011;5979;50.800;4.904;2022-11-15T10:48:48;4.22;;;1.40;;
11839;SDS011;5979;50.800;4.904;2022-11-15T10:51:21;2.90;;;1.23;;
11839;SDS011;5979;50.800;4.904;2022-11-15T10:53:53;2.67;;;1.42;;
11839;SDS011;5979;50.800;4.904;2022-11-15T10:56:21;6.40;;;1.67;;
11839;SDS011;5979;50.800;4.904;2022-11-15T10:58:53;1.80;;;1.40;;
11839;SDS011;5979;50.800;4.904;2022-11-15T11:01:25;4.05;;;1.23;;
11839;SDS011;5979;50.800;4.904;2022-11-15T11:04:05;2.58;;;1.30;;
11839;SDS011;5979;50.800;4.904;2022-11-15T11:09:33;1.98;;;1.23;;
11839;SDS011;5979;50.800;4.904;2022-11-15T11:12:01;3.55;;;1.25;;
11839;SDS011;5979;50.800;4.904;2022-11-15T11:14:34;4.18;;;1.15;;
11839;SDS011;5979;50.800;4.904;2022-11-15T11:19:58;3.95;;;1.65;;
11839;SDS011;5979;50.800;4.904;2022-11-15T11:28:17;2.28;;;1.20;;
11839;SDS011;5979;50.800;4.904;2022-11-15T11:31:00;2.17;;;1.13;;
11839;SDS011;5979;50.800;4.904;2022-11-15T11:33:50;2.13;;;1.17;;
11839;SDS011;5979;50.800;4.904;2022-11-15T11:46:47;2.33;;;1.25;;
11839;SDS011;5979;50.800;4.904;2022-11-15T11:52:18;2.03;;;1.50;;
11839;SDS011;5979;50.800;4.904;2022-11-15T12:03:59;3.22;;;1.30;;
11839;SDS011;5979;50.800;4.904;2022-11-15T12:09:16;2.53;;;1.23;;
11839;SDS011;5979;50.800;4.904;2022-11-15T12:11:58;2.95;;;0.98;;
11839;SDS011;5979;50.800;4.904;2022-11-15T12:17:12;2.25;;;1.30;;
11839;SDS011;5979;50.800;4.904;2022-11-15T12:19:39;2.50;;;1.05;;
11839;SDS011;5979;50.800;4.904;2022-11-15T12:30:15;1.20;;;1.08;;
11839;SDS011;5979;50.800;4.904;2022-11-15T12:32:51;3.95;;;1.55;;
11839;SDS011;5979;50.800;4.904;2022-11-15T12:38:04;2.03;;;1.27;;
11839;SDS011;5979;50.800;4.904;2022-11-15T12:47:52;3.20;;;1.58;;
11839;SDS011;5979;50.800;4.904;2022-11-15T12:50:40;3.15;;;1.48;;
11839;SDS011;5979;50.800;4.904;2022-11-15T12:58:39;1.45;;;1.23;;
11839;SDS011;5979;50.800;4.904;2022-11-15T13:06:49;1.50;;;1.40;;
11839;SDS011;5979;50.800;4.904;2022-11-15T13:11:57;1.77;;;1.20;;
11839;SDS011;5979;50.800;4.904;2022-11-15T13:28:00;1.50;;;1.40;;
11839;SDS011;5979;50.800;4.904;2022-11-15T13:30:33;2.63;;;1.40;;
11839;SDS011;5979;50.800;4.904;2022-11-15T13:33:00;2.17;;;1.33;;
11839;SDS011;5979;50.800;4.904;2022-11-15T13:35:40;1.58;;;1.20;;
11839;SDS011;5979;50.800;4.904;2022-11-15T13:38:17;1.10;;;1.10;;
11839;SDS011;5979;50.800;4.904;2022-11-15T13:40:50;1.52;;;1.15;;
11839;SDS011;5979;50.800;4.904;2022-11-15T13:48:50;1.23;;;1.23;;
11839;SDS011;5979;50.800;4.904;2022-11-15T13:54:27;1.73;;;1.40;;
11839;SDS011;5979;50.800;4.904;2022-11-15T13:56:48;1.27;;;1.20;;
11839;SDS011;5979;50.800;4.904;2022-11-15T14:01:49;2.95;;;1.60;;
11839;SDS011;5979;50.800;4.904;2022-11-15T14:04:18;1.23;;;1.13;;
11839;SDS011;5979;50.800;4.904;2022-11-15T14:06:50;1.40;;;1.20;;
11839;SDS011;5979;50.800;4.904;2022-11-15T14:09:25;2.15;;;1.20;;
11839;SDS011;5979;50.800;4.904;2022-11-15T14:11:59;2.88;;;1.50;;
11839;SDS011;5979;50.800;4.904;2022-11-15T14:14:26;3.15;;;1.90;;
11839;SDS011;5979;50.800;4.904;2022-11-15T14:16:54;2.38;;;1.60;;
11839;SDS011;5979;50.800;4.904;2022-11-15T14:24:44;2.55;;;1.75;;
11839;SDS011;5979;50.800;4.904;2022-11-15T14:27:18;1.90;;;1.50;;
11839;SDS011;5979;50.800;4.904;2022-11-15T14:29:46;1.42;;;1.20;;
11839;SDS011;5979;50.800;4.904;2022-11-15T14:32:24;2.10;;;1.73;;
11839;SDS011;5979;50.800;4.904;2022-11-15T14:35:00;1.63;;;1.52;;
11839;SDS011;5979;50.800;4.904;2022-11-15T14:37:31;2.60;;;1.65;;
11839;SDS011;5979;50.800;4.904;2022-11-15T14:39:59;1.80;;;1.70;;
11839;SDS011;5979;50.800;4.904;2022-11-15T14:42:26;1.90;;;1.80;;
11839;SDS011;5979;50.800;4.904;2022-11-15T14:44:52;1.98;;;1.83;;
11839;SDS011;5979;50.800;4.904;2022-11-15T14:47:18;2.20;;;2.10;;
11839;SDS011;5979;50.800;4.904;2022-11-15T14:49:44;2.10;;;1.67;;
11839;SDS011;5979;50.800;4.904;2022-11-15T14:52:31;3.33;;;2.08;;
11839;SDS011;5979;50.800;4.904;2022-11-15T14:55:02;2.00;;;1.80;;
11839;SDS011;5979;50.800;4.904;2022-11-15T14:57:29;1.85;;;1.75;;
11839;SDS011;5979;50.800;4.904;2022-11-15T14:59:55;2.05;;;1.90;;
11839;SDS011;5979;50.800;4.904;2022-11-15T15:02:23;1.88;;;1.75;;
11839;SDS011;5979;50.800;4.904;2022-11-15T15:04:50;1.48;;;1.42;;
11839;SDS011;5979;50.800;4.904;2022-11-15T15:07:16;1.75;;;1.65;;
11839;SDS011;5979;50.800;4.904;2022-11-15T15:09:42;1.90;;;1.80;;
11839;SDS011;5979;50.800;4.904;2022-11-15T15:12:14;3.42;;;1.30;;
11839;SDS011;5979;50.800;4.904;2022-11-15T15:14:48;1.77;;;1.67;;
11839;SDS011;5979;50.800;4.904;2022-11-15T15:17:15;1.85;;;1.75;;
11839;SDS011;5979;50.800;4.904;2022-11-15T15:19:41;2.42;;;1.92;;
11839;SDS011;5979;50.800;4.904;2022-11-15T15:22:17;1.50;;;1.50;;
11839;SDS011;5979;50.800;4.904;2022-11-15T15:24:44;1.85;;;1.73;;
11839;SDS011;5979;50.800;4.904;2022-11-15T15:27:11;3.30;;;1.77;;
11839;SDS011;5979;50.800;4.904;2022-11-15T15:29:37;3.58;;;1.77;;
11839;SDS011;5979;50.800;4.904;2022-11-15T15:32:04;1.75;;;1.65;;
11839;SDS011;5979;50.800;4.904;2022-11-15T15:34:30;2.42;;;1.90;;
11839;SDS011;5979;50.800;4.904;2022-11-15T15:37:06;2.38;;;2.17;;
11839;SDS011;5979;50.800;4.904;2022-11-15T15:39:41;2.40;;;1.75;;
11839;SDS011;5979;50.800;4.904;2022-11-15T15:42:06;2.10;;;2.00;;
11839;SDS011;5979;50.800;4.904;2022-11-15T15:44:32;1.63;;;1.52;;
11839;SDS011;5979;50.800;4.904;2022-11-15T15:46:58;1.80;;;1.70;;
11839;SDS011;5979;50.800;4.904;2022-11-15T15:49:23;1.95;;;1.60;;
11839;SDS011;5979;50.800;4.904;2022-11-15T15:51:49;1.90;;;1.75;;
11839;SDS011;5979;50.800;4.904;2022-11-15T15:54:14;1.88;;;1.65;;
11839;SDS011;5979;50.800;4.904;2022-11-15T15:56:40;1.80;;;1.70;;
11839;SDS011;5979;50.800;4.904;2022-11-15T15:59:06;1.92;;;1.70;;
11839;SDS011;5979;50.800;4.904;2022-11-15T16:01:31;2.05;;;1.70;;
11839;SDS011;5979;50.800;4.904;2022-11-15T16:03:57;2.95;;;1.80;;
11839;SDS011;5979;50.800;4.904;2022-11-15T16:06:25;1.90;;;1.80;;
11839;SDS011;5979;50.800;4.904;2022-11-15T16:08:59;2.00;;;1.90;;
11839;SDS011;5979;50.800;4.904;2022-11-15T16:11:25;1.90;;;1.80;;
11839;SDS011;5979;50.800;4.904;2022-11-15T16:13:50;1.98;;;1.83;;
11839;SDS011;5979;50.800;4.904;2022-11-15T16:16:16;2.15;;;1.90;;
11839;SDS011;5979;50.800;4.904;2022-11-15T16:18:42;2.53;;;2.33;;
11839;SDS011;5979;50.800;4.904;2022-11-15T16:21:08;3.70;;;2.22;;
11839;SDS011;5979;50.800;4.904;2022-11-15T16:23:34;2.47;;;2.28;;
11839;SDS011;5979;50.800;4.904;2022-11-15T16:26:00;2.97;;;2.38;;
11839;SDS011;5979;50.800;4.904;2022-11-15T16:28:31;2.50;;;2.30;;
11839;SDS011;5979;50.800;4.904;2022-11-15T16:33:30;3.78;;;2.83;;
11839;SDS011;5979;50.800;4.904;2022-11-15T16:35:56;2.90;;;2.70;;
11839;SDS011;5979;50.800;4.904;2022-11-15T16:38:22;3.25;;;2.95;;
11839;SDS011;5979;50.800;4.904;2022-11-15T16:40:48;3.33;;;2.80;;
11839;SDS011;5979;50.800;4.904;2022-11-15T16:43:13;3.95;;;2.90;;
11839;SDS011;5979;50.800;4.904;2022-11-15T16:45:39;3.20;;;2.80;;
11839;SDS011;5979;50.800;4.904;2022-11-15T16:48:05;5.03;;;2.85;;
11839;SDS011;5979;50.800;4.904;2022-11-15T16:50:32;2.63;;;2.40;;
11839;SDS011;5979;50.800;4.904;2022-11-15T16:53:04;3.75;;;2.80;;
11839;SDS011;5979;50.800;4.904;2022-11-15T16:55:30;2.88;;;2.67;;
11839;SDS011;5979;50.800;4.904;2022-11-15T16:57:56;5.25;;;2.58;;
11839;SDS011;5979;50.800;4.904;2022-11-15T17:00:25;2.63;;;2.53;;
11839;SDS011;5979;50.800;4.904;2022-11-15T17:02:51;7.10;;;2.85;;
11839;SDS011;5979;50.800;4.904;2022-11-15T17:05:19;3.30;;;3.00;;
11839;SDS011;5979;50.800;4.904;2022-11-15T17:07:47;2.65;;;2.45;;
11839;SDS011;5979;50.800;4.904;2022-11-15T17:10:18;2.80;;;2.60;;
11839;SDS011;5979;50.800;4.904;2022-11-15T17:12:45;3.40;;;3.15;;
11839;SDS011;5979;50.800;4.904;2022-11-15T17:15:11;3.20;;;2.90;;
11839;SDS011;5979;50.800;4.904;2022-11-15T17:17:38;2.72;;;2.53;;
11839;SDS011;5979;50.800;4.904;2022-11-15T17:20:05;2.80;;;2.58;;
11839;SDS011;5979;50.800;4.904;2022-11-15T17:22:34;2.85;;;2.72;;
11839;SDS011;5979;50.800;4.904;2022-11-15T17:25:01;3.63;;;2.75;;
11839;SDS011;5979;50.800;4.904;2022-11-15T17:27:27;2.97;;;2.78;;
11839;SDS011;5979;50.800;4.904;2022-11-15T17:29:54;2.95;;;2.75;;
11839;SDS011;5979;50.800;4.904;2022-11-15T17:32:20;3.13;;;2.67;;
11839;SDS011;5979;50.800;4.904;2022-11-15T17:34:45;3.20;;;2.63;;
11839;SDS011;5979;50.800;4.904;2022-11-15T17:37:11;3.08;;;2.88;;
11839;SDS011;5979;50.800;4.904;2022-11-15T17:39:37;3.10;;;2.90;;
11839;SDS011;5979;50.800;4.904;2022-11-15T17:42:02;3.03;;;2.72;;
11839;SDS011;5979;50.800;4.904;2022-11-15T17:44:28;4.70;;;3.00;;